createdAt,value
2023-04-16T00:00:35.799Z,71.92
2023-04-16T00:09:18.778Z,71.76
2023-04-16T00:17:41.770Z,71.86
2023-04-16T00:26:04.706Z,71.99
2023-04-16T00:34:27.541Z,72.14
2023-04-16T00:42:50.766Z,71.94
2023-04-16T00:51:13.687Z,72.02
2023-04-16T00:59:36.552Z,72.18
2023-04-16T01:08:01.444Z,72.28
2023-04-16T01:16:24.559Z,72.25
2023-04-16T01:24:47.509Z,72.20
2023-04-16T01:33:14.755Z,72.48
2023-04-16T01:41:37.788Z,72.51
2023-04-16T01:50:01.564Z,72.33
2023-04-16T01:58:25.753Z,72.39
2023-04-16T02:06:48.829Z,72.53
2023-04-16T02:15:12.124Z,72.31
2023-04-16T02:23:35.170Z,72.48
2023-04-16T02:31:59.738Z,72.61
2023-04-16T02:40:23.717Z,72.55
2023-04-16T02:48:46.706Z,72.82
2023-04-16T02:57:09.885Z,72.73
2023-04-16T03:05:32.775Z,72.63
2023-04-16T03:13:56.685Z,72.62
2023-04-16T03:22:19.591Z,72.70
2023-04-16T03:30:42.687Z,72.88
2023-04-16T03:39:06.183Z,72.88
2023-04-16T03:47:29.399Z,72.71
2023-04-16T03:55:55.540Z,72.89
2023-04-16T04:04:18.749Z,72.81
2023-04-16T04:12:41.859Z,73.14
2023-04-16T04:21:06.966Z,73.01
2023-04-16T04:29:30.967Z,73.18
2023-04-16T04:37:54.135Z,73.28
2023-04-16T04:46:17.392Z,73.41
2023-04-16T04:54:41.843Z,73.22
2023-04-16T05:03:10.594Z,73.52
2023-04-16T05:11:33.977Z,73.30
2023-04-16T05:19:56.986Z,73.42
2023-04-16T05:28:19.884Z,73.50
2023-04-16T05:36:42.824Z,73.74
2023-04-16T05:45:06.925Z,73.74
2023-04-16T05:53:29.879Z,73.90
2023-04-16T06:01:52.786Z,73.68
2023-04-16T06:10:15.793Z,73.78
2023-04-16T06:18:38.772Z,73.89
2023-04-16T06:27:02.891Z,73.74
2023-04-16T06:35:25.914Z,73.85
2023-04-16T06:43:48.865Z,73.84
2023-04-16T06:52:12.101Z,74.03
2023-04-16T07:00:35.075Z,73.88
2023-04-16T07:08:58.026Z,73.96
2023-04-16T07:17:20.966Z,73.94
2023-04-16T07:25:44.570Z,73.94
2023-04-16T07:34:07.766Z,74.05
2023-04-16T07:42:30.743Z,73.95
2023-04-16T07:50:53.802Z,74.20
2023-04-16T07:59:23.044Z,74.07
2023-04-16T08:07:47.137Z,74.25
2023-04-16T08:16:10.262Z,74.24
2023-04-16T08:24:33.683Z,74.34
2023-04-16T08:32:56.751Z,74.43
2023-04-16T08:41:22.060Z,74.49
2023-04-16T08:49:46.226Z,74.42
2023-04-16T08:58:15.958Z,74.46
2023-04-16T09:06:41.430Z,74.28
2023-04-16T09:15:06.551Z,74.51
2023-04-16T09:23:29.918Z,74.33
2023-04-16T09:32:10.086Z,74.42
2023-04-16T09:40:33.365Z,74.31
2023-04-16T09:48:56.531Z,74.32
2023-04-16T09:57:24.169Z,74.28
2023-04-16T10:05:47.064Z,74.03
2023-04-16T10:14:09.963Z,74.08
2023-04-16T10:22:32.908Z,73.99
2023-04-16T10:31:01.124Z,74.00
2023-04-16T10:39:25.659Z,74.04
2023-04-16T10:47:48.528Z,74.04
2023-04-16T10:56:12.839Z,74.04
2023-04-16T11:04:38.366Z,74.01
2023-04-16T11:13:01.837Z,73.80
2023-04-16T11:21:25.467Z,73.76
2023-04-16T11:29:58.153Z,73.52
2023-04-16T11:38:21.145Z,73.41
2023-04-16T11:46:43.998Z,73.45
2023-04-16T11:55:07.063Z,73.18
2023-04-16T12:03:44.238Z,73.12
2023-04-16T12:12:26.432Z,73.23
2023-04-16T12:20:51.216Z,73.12
2023-04-16T12:29:19.922Z,72.90
2023-04-16T12:37:42.743Z,73.07
2023-04-16T12:46:05.867Z,72.81
2023-04-16T12:54:31.212Z,72.87
2023-04-16T13:02:54.320Z,72.82
2023-04-16T13:11:17.428Z,72.58
2023-04-16T13:19:40.275Z,72.38
2023-04-16T13:28:03.195Z,72.45
2023-04-16T13:36:27.840Z,72.43
2023-04-16T13:44:54.255Z,72.13
2023-04-16T13:53:17.227Z,72.23
2023-04-16T14:01:40.117Z,71.98
2023-04-16T14:10:03.218Z,71.90
2023-04-16T14:18:26.193Z,71.90
2023-04-16T14:26:49.122Z,71.80
2023-04-16T14:35:12.088Z,71.67
2023-04-16T14:43:36.050Z,71.62
2023-04-16T14:52:02.135Z,71.67
2023-04-16T15:00:25.325Z,71.65
2023-04-16T15:08:48.335Z,71.36
2023-04-16T15:17:11.396Z,71.31
2023-04-16T15:25:34.432Z,71.28
2023-04-16T15:33:57.302Z,71.08
2023-04-16T15:42:20.243Z,71.00
2023-04-16T15:50:43.806Z,70.87
2023-04-16T15:59:06.837Z,70.67
2023-04-16T16:07:29.708Z,70.58
2023-04-16T16:15:52.532Z,70.45
2023-04-16T16:24:15.650Z,70.50
2023-04-16T16:32:41.061Z,70.24
2023-04-16T16:41:04.140Z,70.24
2023-04-16T16:49:27.214Z,70.14
2023-04-16T16:57:50.431Z,70.17
2023-04-16T17:06:13.279Z,70.24
2023-04-16T17:14:36.134Z,69.95
2023-04-16T17:22:59.492Z,70.04
2023-04-16T17:31:23.146Z,69.88
2023-04-16T17:39:48.750Z,69.97
2023-04-16T17:48:11.749Z,69.93
2023-04-16T17:56:34.918Z,69.72
2023-04-16T18:04:58.074Z,69.74
2023-04-16T18:13:21.470Z,69.52
2023-04-16T18:21:45.153Z,69.58
2023-04-16T18:38:32.865Z,69.40
2023-04-16T18:46:55.838Z,69.56
2023-04-16T18:55:19.604Z,69.49
2023-04-16T19:03:42.670Z,69.46
2023-04-16T19:12:05.770Z,69.46
2023-04-16T19:20:28.893Z,69.19
2023-04-16T19:28:51.789Z,69.09
2023-04-16T19:37:14.585Z,69.08
2023-04-16T19:45:43.250Z,69.29
2023-04-16T19:54:06.163Z,69.33
2023-04-16T20:02:29.127Z,69.46
2023-04-16T20:10:54.076Z,69.26
2023-04-16T20:19:18.131Z,69.12
2023-04-16T20:27:41.147Z,69.36
2023-04-16T20:36:04.225Z,69.36
2023-04-16T20:44:33.413Z,69.29
2023-04-16T20:52:56.474Z,69.27
2023-04-16T21:01:20.642Z,69.17
2023-04-16T21:09:43.774Z,68.98
2023-04-16T21:18:06.746Z,69.13
2023-04-16T21:26:29.772Z,69.12
2023-04-16T21:34:53.166Z,69.07
2023-04-16T21:43:25.208Z,68.95
2023-04-16T21:51:48.059Z,68.94
2023-04-16T22:00:14.789Z,68.99
2023-04-16T22:08:37.983Z,69.18
2023-04-16T22:17:01.957Z,69.01
2023-04-16T22:25:25.098Z,68.87
2023-04-16T22:33:48.073Z,68.69
2023-04-16T22:42:11.571Z,68.80
2023-04-16T22:50:34.488Z,68.82
2023-04-16T22:58:57.744Z,68.77
2023-04-16T23:07:20.593Z,68.74
2023-04-16T23:15:43.843Z,68.73
2023-04-16T23:24:07.547Z,68.53
2023-04-16T23:32:30.396Z,68.57
2023-04-16T23:40:53.436Z,68.53
2023-04-16T23:49:16.329Z,68.84
2023-04-16T23:57:39.150Z,69.00
